createdAt,value
2023-05-05T17:17:55.427Z,9.040
2023-05-05T17:18:55.075Z,6.880
2023-05-05T17:19:55.304Z,9.680
2023-05-05T17:21:54.766Z,11.040
2023-05-05T17:22:55.005Z,12.320
2023-05-05T17:23:55.246Z,12.000
2023-05-05T17:24:55.375Z,12.320
2023-05-05T17:25:54.903Z,5.520
2023-05-05T17:26:55.100Z,7.360
2023-05-05T17:27:55.491Z,10.080
2023-05-05T17:28:54.775Z,9.840
2023-05-05T17:29:54.997Z,9.760
2023-05-05T17:30:55.579Z,7.790
2023-05-05T17:31:55.124Z,7.892
2023-05-05T17:33:55.014Z,5.840
2023-05-05T17:34:55.246Z,2.080
2023-05-05T17:35:54.630Z,4.000
2023-05-05T17:36:54.798Z,2.240
2023-05-05T17:37:54.986Z,6.160
2023-05-05T17:38:55.237Z,6.240
2023-05-05T17:39:55.494Z,6.374
2023-05-05T17:40:54.744Z,7.159
2023-05-05T17:41:55.025Z,6.960
2023-05-05T17:42:55.239Z,8.360
2023-05-05T17:43:55.427Z,12.160
2023-05-05T17:44:54.621Z,7.360
2023-05-05T17:45:55.154Z,7.120
2023-05-05T17:48:55.652Z,8.420
2023-05-05T17:49:55.289Z,6.346
2023-05-05T17:50:55.524Z,8.341
2023-05-05T17:53:55.204Z,10.640
2023-05-05T17:54:55.471Z,9.836
2023-05-05T17:55:55.128Z,7.892
2023-05-05T17:58:55.378Z,4.720
2023-05-05T17:59:54.633Z,3.520
2023-05-05T18:00:54.910Z,1.280
2023-05-05T18:01:55.386Z,2.720
2023-05-05T18:02:54.924Z,2.640
2023-05-05T18:05:55.044Z,4.960
2023-05-05T18:06:55.404Z,7.400
2023-05-05T18:07:54.655Z,3.360
2023-05-05T18:08:54.893Z,6.400
2023-05-05T18:09:55.133Z,5.200
2023-05-05T18:10:55.417Z,6.560
2023-05-05T18:14:54.586Z,2.960
2023-05-05T18:15:54.915Z,2.880
2023-05-05T18:16:55.352Z,2.480
2023-05-05T18:17:55.542Z,6.846
2023-05-05T18:18:55.027Z,7.810
2023-05-05T18:19:55.255Z,4.480
2023-05-05T18:20:55.532Z,0.236
2023-05-05T18:21:54.744Z,0.163
2023-05-05T18:22:55.010Z,3.120
2023-05-05T18:23:59.508Z,0.880
2023-05-05T18:24:54.951Z,0.560
2023-05-05T18:25:55.059Z,2.160
2023-05-05T18:26:55.362Z,3.120
2023-05-05T18:27:54.563Z,0.320
2023-05-05T18:28:54.724Z,0.880
2023-05-05T18:29:55.004Z,2.560
2023-05-05T18:30:55.536Z,4.160
2023-05-05T18:31:55.192Z,4.480
2023-05-05T18:33:55.348Z,7.280
2023-05-05T18:34:54.651Z,9.520
2023-05-05T18:35:54.967Z,7.120
2023-05-05T18:36:55.394Z,6.480
2023-05-05T18:37:54.599Z,8.400
2023-05-05T18:38:55.281Z,8.640
2023-05-05T18:39:54.559Z,5.440
2023-05-05T18:40:55.004Z,6.720
2023-05-05T18:41:55.389Z,8.200
2023-05-05T18:42:55.567Z,6.767
2023-05-05T18:43:54.781Z,5.654
2023-05-05T18:44:55.040Z,5.840
2023-05-05T18:45:55.682Z,4.918
2023-05-05T18:46:55.004Z,3.824
2023-05-05T18:48:55.315Z,1.520
2023-05-05T18:49:54.615Z,0.360
2023-05-05T18:50:55.026Z,1.920
2023-05-05T18:51:55.541Z,1.102
2023-05-05T18:53:54.973Z,0.000
2023-05-05T18:54:55.435Z,0.000
2023-05-05T18:55:55.053Z,0.000
2023-05-05T18:56:55.431Z,0.000
2023-05-05T18:59:55.078Z,7.760
2023-05-05T19:00:55.478Z,6.920
2023-05-05T19:01:55.119Z,5.920
2023-05-05T19:02:55.838Z,6.560
2023-05-05T19:04:55.078Z,6.183
2023-05-05T19:05:54.984Z,7.040
2023-05-05T19:06:56.668Z,8.800
2023-05-05T19:07:54.843Z,9.200
2023-05-05T19:08:55.046Z,9.120
2023-05-05T19:09:55.224Z,10.880
2023-05-05T19:10:55.439Z,11.840
2023-05-05T19:11:54.649Z,13.480
2023-05-05T19:12:55.018Z,11.960
2023-05-05T19:13:55.472Z,11.725
2023-05-05T19:14:54.689Z,11.146
2023-05-05T19:15:55.037Z,9.840
2023-05-05T19:16:54.882Z,10.440
2023-05-05T19:17:55.001Z,12.160
2023-05-05T19:18:55.405Z,9.760
2023-05-05T19:19:54.602Z,7.920
2023-05-05T19:20:54.814Z,10.720
2023-05-05T19:21:55.075Z,10.720
2023-05-05T19:22:55.511Z,11.252
2023-05-05T19:23:54.814Z,10.820
2023-05-05T19:24:55.047Z,14.000
2023-05-05T19:25:55.451Z,14.160
2023-05-05T19:26:54.723Z,15.720
2023-05-05T19:27:54.855Z,18.320
2023-05-05T19:28:54.998Z,19.280
2023-05-05T19:29:55.471Z,39.108
2023-05-05T19:31:54.963Z,59.120
2023-05-05T19:32:54.626Z,43.880
2023-05-05T19:33:55.088Z,29.200
2023-05-05T19:34:55.398Z,26.640
2023-05-05T19:37:55.042Z,32.280
2023-05-05T19:38:55.269Z,33.360
2023-05-05T19:39:55.651Z,37.180
2023-05-05T19:40:55.083Z,31.078
2023-05-05T19:41:55.243Z,31.280
2023-05-05T19:43:54.751Z,23.200
2023-05-05T19:44:54.944Z,32.160
2023-05-05T19:45:55.294Z,27.000
2023-05-05T19:46:54.782Z,24.400
2023-05-05T19:47:54.871Z,19.680
2023-05-05T19:48:55.218Z,23.040
2023-05-05T19:49:55.380Z,32.280
2023-05-05T19:50:55.493Z,29.744
2023-05-05T19:51:54.696Z,23.146
2023-05-05T19:52:55.586Z,36.960
2023-05-05T19:53:54.830Z,23.200
2023-05-05T19:54:54.971Z,22.840
2023-05-05T19:55:55.277Z,15.280
2023-05-05T19:56:57.187Z,20.380
2023-05-05T19:57:55.562Z,19.680
2023-05-05T19:58:54.675Z,16.353
2023-05-05T19:59:55.161Z,14.080
2023-05-05T20:00:55.422Z,19.840
2023-05-05T20:01:55.095Z,14.880
2023-05-05T20:02:55.227Z,18.800
2023-05-05T20:03:54.928Z,22.800
2023-05-05T20:04:55.457Z,20.144
2023-05-05T20:05:54.577Z,17.654
2023-05-05T20:06:54.752Z,18.560
2023-05-05T20:07:54.938Z,18.080
2023-05-05T20:08:55.070Z,15.520
2023-05-05T20:09:55.855Z,11.040
2023-05-05T20:10:54.747Z,13.920
2023-05-05T20:11:54.948Z,11.040
2023-05-05T20:12:55.310Z,10.720
2023-05-05T20:15:55.370Z,7.040
2023-05-05T20:16:54.996Z,12.480
2023-05-05T20:17:55.359Z,7.920
2023-05-05T20:20:55.310Z,7.440
2023-05-05T20:21:55.517Z,10.544
2023-05-05T20:22:54.847Z,9.356
2023-05-05T20:23:55.136Z,10.400
2023-05-05T20:24:55.311Z,6.400
2023-05-05T20:25:55.507Z,5.823
2023-05-05T20:26:54.811Z,10.820
2023-05-05T20:27:54.977Z,7.680
2023-05-05T20:28:55.186Z,10.720
2023-05-05T20:29:54.842Z,7.840
2023-05-05T20:30:55.315Z,5.600
2023-05-05T20:31:54.811Z,5.280
2023-05-05T20:32:55.352Z,4.640
2023-05-05T20:35:55.444Z,1.810
2023-05-05T20:36:54.610Z,1.261
2023-05-05T20:37:55.222Z,0.000
2023-05-05T20:38:55.493Z,0.720
2023-05-05T20:40:54.724Z,2.400
2023-05-05T20:41:54.919Z,2.720
2023-05-05T20:42:55.126Z,0.560
2023-05-05T20:43:54.552Z,0.080
2023-05-05T20:44:54.672Z,0.880
2023-05-05T20:45:54.968Z,0.640
2023-05-05T20:46:55.265Z,0.720
2023-05-05T20:47:55.123Z,0.640
2023-05-05T20:50:55.540Z,3.620
2023-05-05T20:51:54.702Z,4.963
2023-05-05T20:52:54.871Z,4.080
2023-05-05T20:53:55.173Z,2.560
2023-05-05T20:54:55.345Z,0.000
2023-05-05T20:55:54.555Z,2.000
2023-05-05T20:56:55.291Z,4.760
2023-05-05T20:57:55.458Z,3.541
2023-05-05T21:00:55.103Z,4.960
2023-05-05T21:03:54.728Z,1.600
2023-05-05T21:04:54.965Z,4.000
2023-05-05T21:05:55.187Z,3.200
2023-05-05T21:06:55.311Z,3.280
2023-05-05T21:07:54.561Z,4.960
2023-05-05T21:08:55.265Z,3.120
2023-05-05T21:09:55.473Z,3.974
2023-05-05T21:11:55.015Z,5.360
2023-05-05T21:12:55.617Z,6.120
2023-05-05T21:13:55.084Z,4.800
2023-05-05T21:14:55.229Z,4.080
2023-05-05T21:16:55.103Z,4.000
2023-05-05T21:17:55.158Z,1.600
2023-05-05T21:18:54.570Z,4.800
2023-05-05T21:19:54.733Z,2.960
2023-05-05T21:20:54.958Z,1.680
2023-05-05T21:21:55.106Z,3.200
2023-05-05T21:22:55.328Z,4.000
2023-05-05T21:23:55.530Z,3.226
2023-05-05T21:24:54.739Z,0.244
2023-05-05T21:25:55.031Z,1.920
2023-05-05T21:26:55.225Z,1.200
2023-05-05T21:27:55.447Z,0.960
2023-05-05T21:28:54.779Z,4.160
2023-05-05T21:29:54.933Z,2.880
2023-05-05T21:31:20.325Z,0.480
2023-05-05T21:32:55.544Z,3.384
2023-05-05T21:33:54.794Z,1.302
2023-05-05T21:34:55.255Z,0.040
2023-05-05T21:35:55.653Z,0.000
2023-05-05T21:36:54.855Z,0.325
2023-05-05T21:37:55.139Z,0.440
2023-05-05T21:38:55.510Z,0.000
2023-05-05T21:39:55.155Z,0.760
2023-05-05T21:40:55.436Z,0.000
2023-05-05T21:41:54.596Z,0.000
2023-05-05T21:42:55.006Z,0.000
2023-05-05T21:43:55.188Z,0.000
2023-05-05T21:44:55.357Z,0.000
2023-05-05T21:45:55.531Z,0.000
2023-05-05T21:46:54.973Z,0.000
2023-05-05T21:47:55.381Z,0.000
2023-05-05T21:48:54.958Z,0.000
2023-05-05T21:49:55.140Z,2.240
2023-05-05T21:50:55.438Z,3.280
2023-05-05T21:51:54.700Z,2.400
2023-05-05T21:52:54.906Z,2.960
2023-05-05T21:53:55.077Z,4.080
2023-05-05T21:54:55.252Z,1.280
2023-05-05T21:55:55.451Z,2.000
2023-05-05T21:56:54.614Z,1.280
2023-05-05T21:57:54.757Z,0.000
2023-05-05T21:58:54.982Z,0.000
2023-05-05T21:59:55.192Z,0.000
2023-05-05T22:00:54.703Z,0.000
2023-05-05T22:01:55.195Z,0.000
2023-05-05T22:03:55.912Z,2.125
2023-05-05T22:04:54.917Z,0.651
2023-05-05T22:05:55.074Z,0.000
2023-05-05T22:06:55.402Z,0.000
2023-05-05T22:07:54.673Z,0.000
2023-05-05T22:08:54.853Z,0.400
2023-05-05T22:09:55.156Z,0.720
2023-05-05T22:10:55.440Z,0.236
2023-05-05T22:11:54.598Z,0.000
2023-05-05T22:12:55.158Z,0.000
2023-05-05T22:15:55.099Z,1.400
2023-05-05T22:16:55.371Z,2.480
2023-05-05T22:17:54.831Z,3.200
2023-05-05T22:18:55.308Z,2.680
2023-05-05T22:19:54.645Z,0.000
2023-05-05T22:20:55.395Z,2.480
2023-05-05T22:21:54.534Z,7.200
2023-05-05T22:22:54.734Z,9.120
2023-05-05T22:23:55.014Z,5.120
2023-05-05T22:24:55.325Z,5.280
2023-05-05T22:25:54.613Z,8.080
2023-05-05T22:26:54.734Z,7.920
2023-05-05T22:27:55.024Z,6.600
2023-05-05T22:28:55.302Z,5.280
2023-05-05T22:29:55.507Z,4.092
2023-05-05T22:30:54.757Z,1.790
2023-05-05T22:31:55.245Z,3.320
2023-05-05T22:32:55.640Z,3.600
2023-05-05T22:33:55.355Z,2.240
2023-05-05T22:35:54.845Z,1.360
2023-05-05T22:36:55.070Z,7.560
2023-05-05T22:37:55.259Z,4.400
2023-05-05T22:38:54.626Z,7.280
2023-05-05T22:39:54.875Z,7.040
2023-05-05T22:40:55.169Z,7.440
2023-05-05T22:41:55.447Z,3.384
2023-05-05T22:42:54.644Z,6.753
2023-05-05T22:43:54.912Z,8.080
2023-05-05T22:44:55.280Z,8.000
2023-05-05T22:45:54.916Z,6.640
2023-05-05T22:46:55.131Z,8.160
2023-05-05T22:47:55.737Z,5.115
2023-05-05T22:48:54.631Z,9.112
2023-05-05T22:49:54.997Z,10.320
2023-05-05T22:50:55.281Z,8.560
2023-05-05T22:51:55.541Z,10.780
2023-05-05T22:52:54.720Z,4.881
2023-05-05T22:53:55.241Z,6.800
2023-05-05T22:54:55.094Z,8.720
2023-05-05T22:57:55.414Z,7.760
2023-05-05T22:58:54.941Z,3.600
2023-05-05T22:59:55.329Z,5.920
2023-05-05T23:02:55.748Z,10.400
2023-05-05T23:03:55.131Z,7.720
2023-05-05T23:05:54.752Z,4.560
2023-05-05T23:06:54.965Z,7.040
2023-05-05T23:07:55.299Z,4.640
2023-05-05T23:08:55.489Z,4.879
2023-05-05T23:09:54.696Z,8.705
2023-05-05T23:10:54.957Z,8.240
2023-05-05T23:11:55.261Z,6.360
2023-05-05T23:12:55.613Z,6.452
2023-05-05T23:13:55.299Z,9.356
2023-05-05T23:14:55.443Z,7.003
2023-05-05T23:17:55.331Z,2.960
2023-05-05T23:18:54.878Z,3.360
2023-05-05T23:19:55.059Z,6.640
2023-05-05T23:20:55.358Z,5.920
2023-05-05T23:21:54.926Z,3.120
2023-05-05T23:22:55.143Z,8.000
2023-05-05T23:23:55.446Z,8.498
2023-05-05T23:24:54.733Z,6.753
2023-05-05T23:25:55.216Z,5.040
2023-05-05T23:26:55.417Z,8.000
2023-05-05T23:27:54.598Z,6.400
2023-05-05T23:28:54.816Z,6.960
2023-05-05T23:29:54.995Z,10.120
2023-05-05T23:30:55.361Z,9.200
2023-05-05T23:31:54.924Z,5.760
2023-05-05T23:32:55.417Z,3.440
2023-05-05T23:33:54.918Z,5.760
2023-05-05T23:34:55.095Z,4.880
2023-05-05T23:35:55.488Z,5.115
2023-05-05T23:36:54.749Z,4.963
2023-05-05T23:37:55.486Z,2.754
2023-05-05T23:38:54.641Z,2.115
2023-05-05T23:39:54.879Z,1.240
2023-05-05T23:40:55.049Z,3.600
2023-05-05T23:41:55.334Z,4.960
2023-05-05T23:42:55.521Z,7.475
2023-05-05T23:43:54.638Z,7.729
2023-05-05T23:44:54.805Z,6.720
2023-05-05T23:45:55.115Z,8.320
2023-05-05T23:46:54.970Z,6.960
2023-05-05T23:47:55.347Z,7.320
2023-05-05T23:49:55.170Z,10.000
2023-05-05T23:50:55.351Z,10.720
2023-05-05T23:51:54.755Z,10.720
2023-05-05T23:52:54.942Z,9.160
2023-05-05T23:53:55.134Z,3.840
2023-05-05T23:54:55.324Z,5.360
2023-05-05T23:55:54.985Z,7.880
2023-05-05T23:56:55.466Z,9.521
2023-05-05T23:57:54.619Z,7.688
2023-05-05T23:58:54.819Z,7.120
2023-05-05T23:59:55.102Z,7.360
